sensor_id;sensor_type;location;lat;lon;timestamp;pressure;altitude;pressure_sealevel;temperature;humidity
77235;BME280;66253;50.526;14.974;2023-06-10T00:01:06;98870.45;;;16.26;73.89
77235;BME280;66253;50.526;14.974;2023-06-10T00:03:35;98876.05;;;16.23;74.11
77235;BME280;66253;50.526;14.974;2023-06-10T00:06:04;98873.07;;;16.21;74.14
77235;BME280;66253;50.526;14.974;2023-06-10T00:08:31;98871.19;;;16.21;74.20
77235;BME280;66253;50.526;14.974;2023-06-10T00:10:59;98868.80;;;16.20;74.16
77235;BME280;66253;50.526;14.974;2023-06-10T00:13:27;98871.95;;;16.18;74.49
77235;BME280;66253;50.526;14.974;2023-06-10T00:15:56;98871.26;;;16.16;74.66
77235;BME280;66253;50.526;14.974;2023-06-10T00:18:24;98873.77;;;16.16;74.91
77235;BME280;66253;50.526;14.974;2023-06-10T00:20:52;98874.10;;;16.15;74.84
77235;BME280;66253;50.526;14.974;2023-06-10T00:23:20;98872.20;;;16.15;75.00
77235;BME280;66253;50.526;14.974;2023-06-10T00:25:49;98866.77;;;16.14;74.99
77235;BME280;66253;50.526;14.974;2023-06-10T00:28:17;98869.27;;;16.13;75.06
77235;BME280;66253;50.526;14.974;2023-06-10T00:30:45;98869.33;;;16.10;75.11
77235;BME280;66253;50.526;14.974;2023-06-10T00:33:13;98869.60;;;16.05;75.09
77235;BME280;66253;50.526;14.974;2023-06-10T00:35:42;98868.87;;;16.02;75.25
77235;BME280;66253;50.526;14.974;2023-06-10T00:38:10;98871.30;;;16.01;75.43
77235;BME280;66253;50.526;14.974;2023-06-10T00:40:41;98874.81;;;16.03;75.24
77235;BME280;66253;50.526;14.974;2023-06-10T00:43:09;98876.60;;;16.02;75.24
77235;BME280;66253;50.526;14.974;2023-06-10T00:45:38;98882.66;;;16.01;75.27
77235;BME280;66253;50.526;14.974;2023-06-10T00:48:06;98882.66;;;16.01;75.32
77235;BME280;66253;50.526;14.974;2023-06-10T00:50:35;98880.75;;;16.01;75.45
77235;BME280;66253;50.526;14.974;2023-06-10T00:53:03;98881.55;;;16.02;75.84
77235;BME280;66253;50.526;14.974;2023-06-10T00:55:33;98883.14;;;16.04;75.86
77235;BME280;66253;50.526;14.974;2023-06-10T00:58:01;98880.40;;;16.04;76.10
77235;BME280;66253;50.526;14.974;2023-06-10T01:00:31;98883.77;;;16.03;76.20
77235;BME280;66253;50.526;14.974;2023-06-10T01:03:00;98885.05;;;16.00;76.22
77235;BME280;66253;50.526;14.974;2023-06-10T01:05:28;98884.92;;;15.95;76.33
77235;BME280;66253;50.526;14.974;2023-06-10T01:08:03;98883.51;;;15.91;76.52
77235;BME280;66253;50.526;14.974;2023-06-10T01:10:36;98880.77;;;15.89;76.50
77235;BME280;66253;50.526;14.974;2023-06-10T01:13:09;98882.34;;;15.88;76.43
77235;BME280;66253;50.526;14.974;2023-06-10T01:15:37;98889.04;;;15.87;76.72
77235;BME280;66253;50.526;14.974;2023-06-10T01:18:07;98888.39;;;15.84;76.76
77235;BME280;66253;50.526;14.974;2023-06-10T01:20:37;98892.63;;;15.83;76.78
77235;BME280;66253;50.526;14.974;2023-06-10T01:23:06;98889.83;;;15.84;76.74
77235;BME280;66253;50.526;14.974;2023-06-10T01:25:38;98890.33;;;15.86;76.66
77235;BME280;66253;50.526;14.974;2023-06-10T01:31:18;98893.25;;;15.94;76.67
77235;BME280;66253;50.526;14.974;2023-06-10T01:33:51;98892.73;;;15.96;76.83
77235;BME280;66253;50.526;14.974;2023-06-10T01:36:21;98897.59;;;16.00;76.84
77235;BME280;66253;50.526;14.974;2023-06-10T01:38:51;98896.37;;;16.02;76.93
77235;BME280;66253;50.526;14.974;2023-06-10T01:41:21;98897.71;;;16.05;76.91
77235;BME280;66253;50.526;14.974;2023-06-10T01:43:50;98893.89;;;16.07;76.89
77235;BME280;66253;50.526;14.974;2023-06-10T01:46:18;98893.47;;;16.08;76.96
77235;BME280;66253;50.526;14.974;2023-06-10T01:48:46;98896.74;;;16.10;76.94
77235;BME280;66253;50.526;14.974;2023-06-10T01:51:15;98895.09;;;16.11;76.85
77235;BME280;66253;50.526;14.974;2023-06-10T01:53:43;98898.96;;;16.12;76.74
77235;BME280;66253;50.526;14.974;2023-06-10T01:56:11;98894.60;;;16.13;76.61
77235;BME280;66253;50.526;14.974;2023-06-10T01:58:39;98895.70;;;16.14;76.40
77235;BME280;66253;50.526;14.974;2023-06-10T02:01:08;98897.73;;;16.14;76.28
77235;BME280;66253;50.526;14.974;2023-06-10T02:03:36;98899.75;;;16.15;76.22
77235;BME280;66253;50.526;14.974;2023-06-10T02:06:04;98899.59;;;16.15;76.18
77235;BME280;66253;50.526;14.974;2023-06-10T02:08:32;98898.73;;;16.15;76.18
77235;BME280;66253;50.526;14.974;2023-06-10T02:11:01;98900.73;;;16.14;76.19
77235;BME280;66253;50.526;14.974;2023-06-10T02:13:29;98897.86;;;16.13;76.32
77235;BME280;66253;50.526;14.974;2023-06-10T02:15:57;98904.29;;;16.12;76.16
77235;BME280;66253;50.526;14.974;2023-06-10T02:18:26;98902.56;;;16.12;76.28
77235;BME280;66253;50.526;14.974;2023-06-10T02:20:54;98905.23;;;16.11;76.17
77235;BME280;66253;50.526;14.974;2023-06-10T02:23:22;98906.73;;;16.10;76.26
77235;BME280;66253;50.526;14.974;2023-06-10T02:25:50;98907.35;;;16.09;76.29
77235;BME280;66253;50.526;14.974;2023-06-10T02:28:19;98908.94;;;16.08;76.34
77235;BME280;66253;50.526;14.974;2023-06-10T02:30:47;98906.94;;;16.06;76.42
77235;BME280;66253;50.526;14.974;2023-06-10T02:33:15;98909.63;;;16.04;76.21
77235;BME280;66253;50.526;14.974;2023-06-10T02:35:43;98911.08;;;16.03;76.34
77235;BME280;66253;50.526;14.974;2023-06-10T02:38:12;98913.53;;;16.03;76.47
77235;BME280;66253;50.526;14.974;2023-06-10T02:40:40;98915.16;;;16.02;76.26
77235;BME280;66253;50.526;14.974;2023-06-10T02:43:08;98913.98;;;16.00;76.33
77235;BME280;66253;50.526;14.974;2023-06-10T02:45:36;98918.29;;;15.95;76.43
77235;BME280;66253;50.526;14.974;2023-06-10T02:48:05;98922.59;;;15.91;76.57
77235;BME280;66253;50.526;14.974;2023-06-10T02:50:34;98923.42;;;15.89;76.68
77235;BME280;66253;50.526;14.974;2023-06-10T02:53:02;98925.45;;;15.88;76.53
77235;BME280;66253;50.526;14.974;2023-06-10T02:55:30;98925.39;;;15.89;76.50
77235;BME280;66253;50.526;14.974;2023-06-10T02:57:58;98926.34;;;15.90;76.65
77235;BME280;66253;50.526;14.974;2023-06-10T03:00:27;98927.10;;;15.91;76.52
77235;BME280;66253;50.526;14.974;2023-06-10T03:02:55;98923.52;;;15.91;76.63
77235;BME280;66253;50.526;14.974;2023-06-10T03:05:23;98929.87;;;15.91;76.56
77235;BME280;66253;50.526;14.974;2023-06-10T03:07:51;98928.98;;;15.91;76.68
77235;BME280;66253;50.526;14.974;2023-06-10T03:10:19;98928.98;;;15.91;76.56
77235;BME280;66253;50.526;14.974;2023-06-10T03:12:48;98932.41;;;15.89;76.53
77235;BME280;66253;50.526;14.974;2023-06-10T03:15:16;98928.23;;;15.90;76.73
77235;BME280;66253;50.526;14.974;2023-06-10T03:17:44;98927.06;;;15.89;76.74
77235;BME280;66253;50.526;14.974;2023-06-10T03:20:13;98923.54;;;15.88;76.69
77235;BME280;66253;50.526;14.974;2023-06-10T03:22:42;98921.48;;;15.88;76.63
77235;BME280;66253;50.526;14.974;2023-06-10T03:25:10;98921.27;;;15.86;76.64
77235;BME280;66253;50.526;14.974;2023-06-10T03:27:39;98924.23;;;15.86;76.59
77235;BME280;66253;50.526;14.974;2023-06-10T03:30:09;98930.48;;;15.83;76.52
77235;BME280;66253;50.526;14.974;2023-06-10T03:32:37;98933.78;;;15.81;76.54
77235;BME280;66253;50.526;14.974;2023-06-10T03:35:07;98929.30;;;15.79;76.61
77235;BME280;66253;50.526;14.974;2023-06-10T03:37:35;98933.70;;;15.80;76.86
77235;BME280;66253;50.526;14.974;2023-06-10T03:40:05;98938.38;;;15.82;76.85
77235;BME280;66253;50.526;14.974;2023-06-10T03:42:31;98936.44;;;15.84;76.85
77235;BME280;66253;50.526;14.974;2023-06-10T03:45:00;98937.93;;;15.87;76.66
77235;BME280;66253;50.526;14.974;2023-06-10T03:47:29;98937.48;;;15.86;76.63
77235;BME280;66253;50.526;14.974;2023-06-10T03:50:01;98938.63;;;15.83;76.64
77235;BME280;66253;50.526;14.974;2023-06-10T03:52:31;98935.24;;;15.80;76.78
77235;BME280;66253;50.526;14.974;2023-06-10T03:55:00;98937.75;;;15.81;76.95
77235;BME280;66253;50.526;14.974;2023-06-10T03:57:28;98940.85;;;15.83;77.02
77235;BME280;66253;50.526;14.974;2023-06-10T03:59:56;98942.27;;;15.87;77.03
77235;BME280;66253;50.526;14.974;2023-06-10T04:02:24;98944.36;;;15.88;76.93
77235;BME280;66253;50.526;14.974;2023-06-10T04:04:53;98942.20;;;15.89;76.89
77235;BME280;66253;50.526;14.974;2023-06-10T04:07:21;98944.63;;;15.91;77.03
77235;BME280;66253;50.526;14.974;2023-06-10T04:09:49;98943.52;;;15.92;76.98
77235;BME280;66253;50.526;14.974;2023-06-10T04:12:17;98946.91;;;15.93;77.05
77235;BME280;66253;50.526;14.974;2023-06-10T04:14:45;98945.84;;;15.95;77.21
77235;BME280;66253;50.526;14.974;2023-06-10T04:17:13;98947.45;;;15.99;77.17
77235;BME280;66253;50.526;14.974;2023-06-10T04:19:42;98949.17;;;16.03;77.15
77235;BME280;66253;50.526;14.974;2023-06-10T04:22:10;98948.33;;;16.07;77.08
77235;BME280;66253;50.526;14.974;2023-06-10T04:24:38;98950.02;;;16.11;77.12
77235;BME280;66253;50.526;14.974;2023-06-10T04:27:07;98948.00;;;16.15;76.92
77235;BME280;66253;50.526;14.974;2023-06-10T04:29:35;98945.83;;;16.20;76.88
77235;BME280;66253;50.526;14.974;2023-06-10T04:32:04;98948.46;;;16.26;77.04
77235;BME280;66253;50.526;14.974;2023-06-10T04:34:34;98952.49;;;16.32;76.92
77235;BME280;66253;50.526;14.974;2023-06-10T04:37:02;98952.42;;;16.36;76.75
77235;BME280;66253;50.526;14.974;2023-06-10T04:39:30;98954.77;;;16.41;76.82
77235;BME280;66253;50.526;14.974;2023-06-10T04:41:59;98952.38;;;16.45;76.55
77235;BME280;66253;50.526;14.974;2023-06-10T04:44:27;98946.17;;;16.49;76.60
77235;BME280;66253;50.526;14.974;2023-06-10T04:46:56;98950.95;;;16.54;76.58
77235;BME280;66253;50.526;14.974;2023-06-10T04:49:24;98956.00;;;16.59;76.61
77235;BME280;66253;50.526;14.974;2023-06-10T04:51:53;98951.27;;;16.64;76.36
77235;BME280;66253;50.526;14.974;2023-06-10T04:54:21;98954.59;;;16.70;76.43
77235;BME280;66253;50.526;14.974;2023-06-10T04:56:49;98960.08;;;16.77;76.29
77235;BME280;66253;50.526;14.974;2023-06-10T04:59:18;98964.51;;;16.81;76.18
77235;BME280;66253;50.526;14.974;2023-06-10T05:01:46;98964.48;;;16.88;76.04
77235;BME280;66253;50.526;14.974;2023-06-10T05:04:14;98964.73;;;16.95;75.85
77235;BME280;66253;50.526;14.974;2023-06-10T05:06:43;98965.52;;;17.03;75.68
77235;BME280;66253;50.526;14.974;2023-06-10T05:09:11;98966.48;;;17.14;75.61
77235;BME280;66253;50.526;14.974;2023-06-10T05:11:39;98964.92;;;17.24;75.37
77235;BME280;66253;50.526;14.974;2023-06-10T05:14:08;98959.24;;;17.34;75.37
77235;BME280;66253;50.526;14.974;2023-06-10T05:16:36;98957.08;;;17.43;75.54
77235;BME280;66253;50.526;14.974;2023-06-10T05:19:04;98955.66;;;17.51;75.50
77235;BME280;66253;50.526;14.974;2023-06-10T05:21:32;98957.34;;;17.59;75.58
77235;BME280;66253;50.526;14.974;2023-06-10T05:24:01;98958.98;;;17.68;75.42
77235;BME280;66253;50.526;14.974;2023-06-10T05:26:29;98956.97;;;17.81;75.49
77235;BME280;66253;50.526;14.974;2023-06-10T05:28:58;98954.06;;;17.96;75.26
77235;BME280;66253;50.526;14.974;2023-06-10T05:31:26;98958.46;;;18.10;74.86
77235;BME280;66253;50.526;14.974;2023-06-10T05:33:54;98958.20;;;18.21;74.50
77235;BME280;66253;50.526;14.974;2023-06-10T05:36:23;98956.15;;;18.32;74.20
77235;BME280;66253;50.526;14.974;2023-06-10T05:38:51;98954.52;;;18.42;74.01
77235;BME280;66253;50.526;14.974;2023-06-10T05:41:19;98951.48;;;18.50;73.75
77235;BME280;66253;50.526;14.974;2023-06-10T05:43:47;98950.64;;;18.62;73.61
77235;BME280;66253;50.526;14.974;2023-06-10T05:46:16;98948.48;;;18.70;73.07
77235;BME280;66253;50.526;14.974;2023-06-10T05:48:44;98951.23;;;18.75;72.69
77235;BME280;66253;50.526;14.974;2023-06-10T05:51:12;98957.19;;;18.82;72.32
77235;BME280;66253;50.526;14.974;2023-06-10T05:53:40;98961.43;;;18.88;71.51
77235;BME280;66253;50.526;14.974;2023-06-10T05:56:09;98955.84;;;18.95;71.32
77235;BME280;66253;50.526;14.974;2023-06-10T05:58:37;98956.58;;;19.01;71.30
77235;BME280;66253;50.526;14.974;2023-06-10T06:01:05;98961.09;;;19.07;71.23
77235;BME280;66253;50.526;14.974;2023-06-10T06:03:34;98960.92;;;19.12;71.12
77235;BME280;66253;50.526;14.974;2023-06-10T06:06:02;98961.60;;;19.18;71.07
77235;BME280;66253;50.526;14.974;2023-06-10T06:08:31;98961.99;;;19.25;71.04
77235;BME280;66253;50.526;14.974;2023-06-10T06:10:59;98962.20;;;19.32;70.87
77235;BME280;66253;50.526;14.974;2023-06-10T06:13:27;98963.29;;;19.42;70.69
77235;BME280;66253;50.526;14.974;2023-06-10T06:15:56;98961.41;;;19.50;70.55
77235;BME280;66253;50.526;14.974;2023-06-10T06:18:24;98962.59;;;19.58;70.29
77235;BME280;66253;50.526;14.974;2023-06-10T06:20:52;98968.31;;;19.67;70.17
77235;BME280;66253;50.526;14.974;2023-06-10T06:23:20;98967.78;;;19.78;70.03
77235;BME280;66253;50.526;14.974;2023-06-10T06:25:49;98970.63;;;19.92;69.64
77235;BME280;66253;50.526;14.974;2023-06-10T06:28:17;98972.14;;;20.07;69.44
77235;BME280;66253;50.526;14.974;2023-06-10T06:30:45;98966.75;;;20.20;68.72
77235;BME280;66253;50.526;14.974;2023-06-10T06:33:14;98966.64;;;20.29;68.54
77235;BME280;66253;50.526;14.974;2023-06-10T06:35:42;98968.41;;;20.37;67.86
77235;BME280;66253;50.526;14.974;2023-06-10T06:38:10;98966.85;;;20.45;67.92
77235;BME280;66253;50.526;14.974;2023-06-10T06:40:38;98970.96;;;20.52;67.73
77235;BME280;66253;50.526;14.974;2023-06-10T06:43:07;98971.94;;;20.56;67.16
77235;BME280;66253;50.526;14.974;2023-06-10T06:45:35;98975.95;;;20.61;67.25
77235;BME280;66253;50.526;14.974;2023-06-10T06:48:04;98977.82;;;20.67;67.25
77235;BME280;66253;50.526;14.974;2023-06-10T06:50:31;98980.02;;;20.71;67.57
77235;BME280;66253;50.526;14.974;2023-06-10T06:52:59;98982.52;;;20.75;67.60
77235;BME280;66253;50.526;14.974;2023-06-10T06:55:27;98990.77;;;20.78;67.65
77235;BME280;66253;50.526;14.974;2023-06-10T06:57:56;98993.91;;;20.79;67.78
77235;BME280;66253;50.526;14.974;2023-06-10T07:00:24;98992.39;;;20.79;67.40
77235;BME280;66253;50.526;14.974;2023-06-10T07:02:52;98997.92;;;20.77;67.31
77235;BME280;66253;50.526;14.974;2023-06-10T07:05:21;99000.06;;;20.78;67.49
77235;BME280;66253;50.526;14.974;2023-06-10T07:07:49;99002.31;;;20.78;67.41
77235;BME280;66253;50.526;14.974;2023-06-10T07:10:17;99005.20;;;20.79;67.65
77235;BME280;66253;50.526;14.974;2023-06-10T07:12:46;99008.45;;;20.76;67.71
77235;BME280;66253;50.526;14.974;2023-06-10T07:15:14;99007.80;;;20.76;68.01
77235;BME280;66253;50.526;14.974;2023-06-10T07:17:42;99010.27;;;20.77;68.15
77235;BME280;66253;50.526;14.974;2023-06-10T07:20:11;99008.18;;;20.80;68.28
77235;BME280;66253;50.526;14.974;2023-06-10T07:22:40;99008.72;;;20.84;68.12
77235;BME280;66253;50.526;14.974;2023-06-10T07:25:10;99014.02;;;20.84;68.18
77235;BME280;66253;50.526;14.974;2023-06-10T07:27:38;99015.96;;;20.87;68.32
77235;BME280;66253;50.526;14.974;2023-06-10T07:30:08;99020.16;;;20.89;68.76
77235;BME280;66253;50.526;14.974;2023-06-10T07:32:36;99027.99;;;20.93;68.82
77235;BME280;66253;50.526;14.974;2023-06-10T07:35:08;99025.73;;;20.94;68.82
77235;BME280;66253;50.526;14.974;2023-06-10T07:37:36;99030.86;;;20.95;68.64
77235;BME280;66253;50.526;14.974;2023-06-10T07:40:06;99032.37;;;20.95;67.50
77235;BME280;66253;50.526;14.974;2023-06-10T07:42:35;99037.37;;;20.93;65.95
77235;BME280;66253;50.526;14.974;2023-06-10T07:45:05;99038.88;;;20.89;66.38
77235;BME280;66253;50.526;14.974;2023-06-10T07:47:34;99037.62;;;20.90;66.44
77235;BME280;66253;50.526;14.974;2023-06-10T07:50:03;99039.02;;;20.90;66.12
77235;BME280;66253;50.526;14.974;2023-06-10T07:52:32;99033.32;;;20.89;66.25
77235;BME280;66253;50.526;14.974;2023-06-10T07:55:01;99031.99;;;20.92;66.14
77235;BME280;66253;50.526;14.974;2023-06-10T07:57:29;99030.27;;;20.94;65.84
77235;BME280;66253;50.526;14.974;2023-06-10T07:59:57;99034.67;;;20.93;65.58
77235;BME280;66253;50.526;14.974;2023-06-10T08:02:25;99034.55;;;20.96;65.94
77235;BME280;66253;50.526;14.974;2023-06-10T08:04:54;99037.30;;;21.01;65.84
77235;BME280;66253;50.526;14.974;2023-06-10T08:07:22;99038.76;;;21.07;65.07
77235;BME280;66253;50.526;14.974;2023-06-10T08:09:50;99040.23;;;21.08;63.94
77235;BME280;66253;50.526;14.974;2023-06-10T08:12:18;99039.52;;;21.05;63.46
77235;BME280;66253;50.526;14.974;2023-06-10T08:14:47;99037.86;;;21.08;64.54
77235;BME280;66253;50.526;14.974;2023-06-10T08:17:15;99039.34;;;21.14;64.75
77235;BME280;66253;50.526;14.974;2023-06-10T08:19:43;99039.52;;;21.19;64.17
77235;BME280;66253;50.526;14.974;2023-06-10T08:22:12;99042.75;;;21.23;63.46
77235;BME280;66253;50.526;14.974;2023-06-10T08:24:40;99041.89;;;21.26;63.26
77235;BME280;66253;50.526;14.974;2023-06-10T08:27:08;99049.52;;;21.31;63.51
77235;BME280;66253;50.526;14.974;2023-06-10T08:29:36;99052.11;;;21.38;63.52
77235;BME280;66253;50.526;14.974;2023-06-10T08:32:06;99050.66;;;21.46;63.77
77235;BME280;66253;50.526;14.974;2023-06-10T08:34:35;99054.10;;;21.51;63.29
77235;BME280;66253;50.526;14.974;2023-06-10T08:37:02;99053.29;;;21.52;63.05
77235;BME280;66253;50.526;14.974;2023-06-10T08:39:30;99059.19;;;21.54;62.98
77235;BME280;66253;50.526;14.974;2023-06-10T08:42:04;99059.84;;;21.54;62.98
77235;BME280;66253;50.526;14.974;2023-06-10T08:44:33;99058.27;;;21.52;63.68
77235;BME280;66253;50.526;14.974;2023-06-10T08:47:08;99062.25;;;21.54;63.89
77235;BME280;66253;50.526;14.974;2023-06-10T08:49:41;99055.85;;;21.58;64.09
77235;BME280;66253;50.526;14.974;2023-06-10T08:52:11;99057.92;;;21.63;64.86
77235;BME280;66253;50.526;14.974;2023-06-10T08:54:47;99056.69;;;21.64;65.13
77235;BME280;66253;50.526;14.974;2023-06-10T08:57:16;99060.19;;;21.66;65.60
77235;BME280;66253;50.526;14.974;2023-06-10T08:59:44;99061.86;;;21.67;65.74
77235;BME280;66253;50.526;14.974;2023-06-10T09:02:13;99064.77;;;21.65;65.83
77235;BME280;66253;50.526;14.974;2023-06-10T09:04:43;99065.23;;;21.61;65.95
77235;BME280;66253;50.526;14.974;2023-06-10T09:07:13;99068.02;;;21.52;66.31
77235;BME280;66253;50.526;14.974;2023-06-10T09:09:40;99075.58;;;21.46;66.08
77235;BME280;66253;50.526;14.974;2023-06-10T09:12:10;99073.27;;;21.47;66.37
77235;BME280;66253;50.526;14.974;2023-06-10T09:14:37;99073.77;;;21.47;65.85
77235;BME280;66253;50.526;14.974;2023-06-10T09:17:06;99067.48;;;21.51;66.33
77235;BME280;66253;50.526;14.974;2023-06-10T09:19:36;99067.70;;;21.57;66.59
77235;BME280;66253;50.526;14.974;2023-06-10T09:22:06;99070.67;;;21.62;66.43
77235;BME280;66253;50.526;14.974;2023-06-10T09:24:35;99072.05;;;21.67;66.48
77235;BME280;66253;50.526;14.974;2023-06-10T09:27:08;99073.27;;;21.74;66.51
77235;BME280;66253;50.526;14.974;2023-06-10T09:29:48;99072.05;;;21.82;66.42
77235;BME280;66253;50.526;14.974;2023-06-10T09:32:20;99071.44;;;21.91;66.06
77235;BME280;66253;50.526;14.974;2023-06-10T09:34:49;99070.39;;;22.01;66.11
77235;BME280;66253;50.526;14.974;2023-06-10T09:37:22;99068.66;;;22.09;65.99
77235;BME280;66253;50.526;14.974;2023-06-10T09:40:05;99067.23;;;22.16;65.39
77235;BME280;66253;50.526;14.974;2023-06-10T09:42:38;99068.11;;;22.19;64.35
77235;BME280;66253;50.526;14.974;2023-06-10T09:45:08;99064.84;;;22.22;64.59
77235;BME280;66253;50.526;14.974;2023-06-10T09:47:36;99065.33;;;22.27;64.60
77235;BME280;66253;50.526;14.974;2023-06-10T09:50:06;99064.65;;;22.33;64.34
77235;BME280;66253;50.526;14.974;2023-06-10T09:52:32;99069.86;;;22.36;63.76
77235;BME280;66253;50.526;14.974;2023-06-10T09:55:07;99068.67;;;22.42;63.41
77235;BME280;66253;50.526;14.974;2023-06-10T09:57:36;99066.25;;;22.48;63.52
77235;BME280;66253;50.526;14.974;2023-06-10T10:00:09;99071.11;;;22.55;63.51
77235;BME280;66253;50.526;14.974;2023-06-10T10:02:45;99071.94;;;22.62;63.65
77235;BME280;66253;50.526;14.974;2023-06-10T10:05:14;99069.02;;;22.71;62.79
77235;BME280;66253;50.526;14.974;2023-06-10T10:07:42;99071.34;;;22.77;62.28
77235;BME280;66253;50.526;14.974;2023-06-10T10:10:13;99074.30;;;22.82;61.91
77235;BME280;66253;50.526;14.974;2023-06-10T10:12:42;99073.25;;;22.85;61.66
77235;BME280;66253;50.526;14.974;2023-06-10T10:15:11;99071.50;;;22.88;61.15
77235;BME280;66253;50.526;14.974;2023-06-10T10:17:44;99069.36;;;22.88;61.12
77235;BME280;66253;50.526;14.974;2023-06-10T10:20:16;99067.50;;;22.91;61.52
77235;BME280;66253;50.526;14.974;2023-06-10T10:22:48;99068.33;;;22.95;60.72
77235;BME280;66253;50.526;14.974;2023-06-10T10:25:24;99068.62;;;22.95;60.78
77235;BME280;66253;50.526;14.974;2023-06-10T10:27:58;99068.27;;;22.98;61.04
77235;BME280;66253;50.526;14.974;2023-06-10T10:30:32;99064.00;;;23.04;60.57
77235;BME280;66253;50.526;14.974;2023-06-10T10:33:08;99061.44;;;23.08;60.16
77235;BME280;66253;50.526;14.974;2023-06-10T10:35:37;99062.02;;;23.11;59.43
77235;BME280;66253;50.526;14.974;2023-06-10T10:38:06;99061.17;;;23.15;59.52
77235;BME280;66253;50.526;14.974;2023-06-10T10:40:34;99057.62;;;23.16;58.72
77235;BME280;66253;50.526;14.974;2023-06-10T10:43:04;99056.14;;;23.16;58.52
77235;BME280;66253;50.526;14.974;2023-06-10T10:45:34;99053.36;;;23.17;58.46
77235;BME280;66253;50.526;14.974;2023-06-10T10:48:07;99054.44;;;23.18;59.05
77235;BME280;66253;50.526;14.974;2023-06-10T10:50:36;99049.33;;;23.20;58.55
77235;BME280;66253;50.526;14.974;2023-06-10T10:53:05;99046.95;;;23.19;57.94
77235;BME280;66253;50.526;14.974;2023-06-10T10:55:32;99040.20;;;23.17;57.80
77235;BME280;66253;50.526;14.974;2023-06-10T10:58:02;99043.01;;;23.17;57.41
77235;BME280;66253;50.526;14.974;2023-06-10T11:00:32;99042.55;;;23.17;57.34
77235;BME280;66253;50.526;14.974;2023-06-10T11:03:04;99044.67;;;23.18;57.72
77235;BME280;66253;50.526;14.974;2023-06-10T11:05:40;99040.54;;;23.23;57.20
77235;BME280;66253;50.526;14.974;2023-06-10T11:08:09;99038.41;;;23.25;56.99
77235;BME280;66253;50.526;14.974;2023-06-10T11:10:39;99038.17;;;23.28;56.78
77235;BME280;66253;50.526;14.974;2023-06-10T11:13:09;99041.07;;;23.32;56.30
77235;BME280;66253;50.526;14.974;2023-06-10T11:15:43;99043.73;;;23.34;56.14
77235;BME280;66253;50.526;14.974;2023-06-10T11:18:14;99043.36;;;23.38;56.45
77235;BME280;66253;50.526;14.974;2023-06-10T11:20:57;99038.81;;;23.44;57.14
77235;BME280;66253;50.526;14.974;2023-06-10T11:23:42;99042.33;;;23.56;57.39
77235;BME280;66253;50.526;14.974;2023-06-10T11:26:18;99037.59;;;23.67;57.85
77235;BME280;66253;50.526;14.974;2023-06-10T11:29:04;99032.63;;;23.74;57.05
77235;BME280;66253;50.526;14.974;2023-06-10T11:31:33;99031.95;;;23.80;56.89
77235;BME280;66253;50.526;14.974;2023-06-10T11:34:03;99034.84;;;23.85;56.32
77235;BME280;66253;50.526;14.974;2023-06-10T11:36:33;99028.20;;;23.88;55.92
77235;BME280;66253;50.526;14.974;2023-06-10T11:39:02;99025.91;;;23.96;55.97
77235;BME280;66253;50.526;14.974;2023-06-10T11:41:32;99023.02;;;24.03;56.24
77235;BME280;66253;50.526;14.974;2023-06-10T11:44:04;99020.83;;;24.13;56.67
77235;BME280;66253;50.526;14.974;2023-06-10T11:46:33;99019.66;;;24.26;56.45
77235;BME280;66253;50.526;14.974;2023-06-10T11:49:02;99019.75;;;24.39;55.57
77235;BME280;66253;50.526;14.974;2023-06-10T11:51:35;99017.47;;;24.51;54.88
77235;BME280;66253;50.526;14.974;2023-06-10T11:54:04;99016.79;;;24.63;55.01
77235;BME280;66253;50.526;14.974;2023-06-10T11:56:33;99015.75;;;24.73;54.29
77235;BME280;66253;50.526;14.974;2023-06-10T11:59:02;99011.71;;;24.78;53.35
77235;BME280;66253;50.526;14.974;2023-06-10T12:01:32;99006.50;;;24.83;53.70
77235;BME280;66253;50.526;14.974;2023-06-10T12:04:02;99005.91;;;24.93;53.24
77235;BME280;66253;50.526;14.974;2023-06-10T12:06:43;99004.56;;;25.01;53.59
77235;BME280;66253;50.526;14.974;2023-06-10T12:09:20;98996.64;;;25.12;52.07
77235;BME280;66253;50.526;14.974;2023-06-10T12:11:50;98993.63;;;25.27;52.41
77235;BME280;66253;50.526;14.974;2023-06-10T12:14:54;98986.22;;;25.40;50.65
77235;BME280;66253;50.526;14.974;2023-06-10T12:17:34;98984.80;;;25.56;50.64
77235;BME280;66253;50.526;14.974;2023-06-10T12:20:06;98981.69;;;25.66;49.58
77235;BME280;66253;50.526;14.974;2023-06-10T12:22:39;98985.79;;;25.67;48.48
77235;BME280;66253;50.526;14.974;2023-06-10T12:25:09;98982.51;;;25.61;47.38
77235;BME280;66253;50.526;14.974;2023-06-10T12:27:38;98977.63;;;25.53;48.55
77235;BME280;66253;50.526;14.974;2023-06-10T12:30:07;98978.96;;;25.48;48.59
77235;BME280;66253;50.526;14.974;2023-06-10T12:32:41;98978.27;;;25.44;49.77
77235;BME280;66253;50.526;14.974;2023-06-10T12:35:11;98977.27;;;25.41;50.12
77235;BME280;66253;50.526;14.974;2023-06-10T12:37:40;98976.05;;;25.35;50.74
77235;BME280;66253;50.526;14.974;2023-06-10T12:40:10;98977.29;;;25.32;50.98
77235;BME280;66253;50.526;14.974;2023-06-10T12:42:38;98982.46;;;25.24;50.76
77235;BME280;66253;50.526;14.974;2023-06-10T12:45:08;98988.58;;;25.14;51.21
77235;BME280;66253;50.526;14.974;2023-06-10T12:47:37;98985.66;;;25.01;51.22
77235;BME280;66253;50.526;14.974;2023-06-10T12:50:07;98981.30;;;24.91;50.66
77235;BME280;66253;50.526;14.974;2023-06-10T12:52:35;98979.09;;;24.82;51.01
77235;BME280;66253;50.526;14.974;2023-06-10T12:55:04;98982.77;;;24.78;51.44
77235;BME280;66253;50.526;14.974;2023-06-10T12:57:31;98984.27;;;24.72;51.28
77235;BME280;66253;50.526;14.974;2023-06-10T12:59:59;98983.73;;;24.66;51.47
77235;BME280;66253;50.526;14.974;2023-06-10T13:02:27;98978.90;;;24.69;51.46
77235;BME280;66253;50.526;14.974;2023-06-10T13:04:56;98975.80;;;24.78;50.83